Time;durP1;ratioP1;P1;durP2;ratioP2;P2;SDS_P1;SDS_P2;PMS_P1;PMS_P2;Temp;Humidity;BMP_temperature;BMP_pressure;BME280_temperature;BME280_humidity;BME280_pressure;Samples;Min_cycle;Max_cycle;Signal;HPM_P1;HPM_P2
2023/10/06 00:00:42;;;;;;;6.60;3.20;;;14.20;99.90;;;;;;5052876;28;20041;-76
2023/10/06 00:03:11;;;;;;;6.45;3.13;;;14.20;99.90;;;;;;5035571;28;20110;-75
2023/10/06 00:05:49;;;;;;;7.88;3.22;;;14.20;99.90;;;;;;5052450;28;20496;-75
2023/10/06 00:08:18;;;;;;;7.28;3.15;;;14.20;99.90;;;;;;5052174;28;20045;-74
2023/10/06 00:10:51;;;;;;;5.53;2.80;;;14.20;99.90;;;;;;5052562;28;20033;-76
2023/10/06 00:13:28;;;;;;;7.45;2.90;;;14.20;99.90;;;;;;5051723;28;20392;-76
2023/10/06 00:15:55;;;;;;;7.25;3.13;;;14.20;99.90;;;;;;5051629;28;20037;-75
2023/10/06 00:18:23;;;;;;;8.00;2.92;;;14.20;99.90;;;;;;5052227;28;20471;-75
2023/10/06 00:20:49;;;;;;;6.45;3.15;;;14.20;99.90;;;;;;5052383;28;20048;-75
2023/10/06 00:23:21;;;;;;;8.85;3.22;;;14.10;99.90;;;;;;5052601;28;20033;-75
2023/10/06 00:25:52;;;;;;;7.22;3.22;;;14.10;99.90;;;;;;5051313;28;20048;-75
2023/10/06 00:28:25;;;;;;;9.85;3.50;;;14.10;99.90;;;;;;5034345;28;20351;-76
2023/10/06 00:30:57;;;;;;;7.80;3.50;;;14.10;99.90;;;;;;5052125;28;20170;-76
2023/10/06 00:33:32;;;;;;;6.43;3.28;;;14.10;99.90;;;;;;5052340;28;20500;-76
2023/10/06 00:36:11;;;;;;;8.63;3.67;;;14.10;99.90;;;;;;5052200;28;20040;-75
2023/10/06 00:38:53;;;;;;;8.02;3.47;;;14.10;99.90;;;;;;5051769;28;20119;-75
2023/10/06 00:41:20;;;;;;;7.97;3.60;;;14.10;99.90;;;;;;5035222;28;20090;-76
2023/10/06 00:43:50;;;;;;;10.05;3.67;;;14.10;99.90;;;;;;5051786;28;20037;-76
2023/10/06 00:46:18;;;;;;;7.28;3.10;;;14.10;99.90;;;;;;5051795;28;20041;-75
2023/10/06 00:48:52;;;;;;;7.80;3.38;;;14.10;99.90;;;;;;5051260;28;20105;-77
2023/10/06 00:51:22;;;;;;;;;;;14.10;99.90;;;;;;5052261;28;20382;-77
2023/10/06 00:53:51;;;;;;;7.18;2.85;;;14.10;99.90;;;;;;5051766;28;19920;-76
2023/10/06 00:56:18;;;;;;;10.88;3.53;;;14.10;99.90;;;;;;5051729;28;20045;-76
2023/10/06 00:58:44;;;;;;;9.00;3.55;;;14.10;99.90;;;;;;5051322;28;20045;-76
2023/10/06 01:01:17;;;;;;;12.32;3.55;;;14.10;99.90;;;;;;5051475;28;20069;-76
2023/10/06 01:03:54;;;;;;;11.75;3.20;;;14.10;99.90;;;;;;5051637;28;20404;-76
2023/10/06 01:06:23;;;;;;;9.38;3.40;;;14.20;99.90;;;;;;5051611;28;20546;-76
2023/10/06 01:08:55;;;;;;;6.25;3.15;;;14.20;99.90;;;;;;5051027;28;20577;-76
2023/10/06 01:11:26;;;;;;;11.00;3.40;;;14.20;99.90;;;;;;5051507;28;20443;-76
2023/10/06 01:14:01;;;;;;;10.65;3.10;;;14.20;99.90;;;;;;5049513;28;20045;-75
2023/10/06 01:16:35;;;;;;;18.50;3.75;;;14.20;99.90;;;;;;5050606;28;20072;-76
2023/10/06 01:19:14;;;;;;;8.32;3.47;;;14.20;99.90;;;;;;5051211;28;20150;-75
2023/10/06 01:21:48;;;;;;;9.13;3.25;;;14.20;99.90;;;;;;5051333;28;20041;-75
2023/10/06 01:24:15;;;;;;;9.65;3.13;;;14.20;99.90;;;;;;5051238;28;20041;-76
2023/10/06 01:26:42;;;;;;;12.45;3.90;;;14.20;99.90;;;;;;5051221;28;20465;-77
2023/10/06 01:29:11;;;;;;;10.38;3.50;;;14.20;99.90;;;;;;5050976;28;20803;-75
2023/10/06 01:31:41;;;;;;;11.27;3.47;;;14.20;99.90;;;;;;5051229;28;20127;-76
2023/10/06 01:34:11;;;;;;;11.75;3.40;;;14.20;99.90;;;;;;5050875;28;20077;-76
2023/10/06 01:36:37;;;;;;;8.93;3.33;;;14.20;99.90;;;;;;5050932;28;20052;-76
2023/10/06 01:39:05;;;;;;;10.40;3.58;;;14.30;99.90;;;;;;5050476;28;20550;-75
2023/10/06 01:41:36;;;;;;;9.57;3.88;;;14.20;99.90;;;;;;5050973;28;20032;-75
2023/10/06 01:44:10;;;;;;;12.20;3.90;;;14.20;99.90;;;;;;5051009;28;20552;-75
2023/10/06 01:46:37;;;;;;;;;;;14.20;99.90;;;;;;5051164;28;20073;-76
2023/10/06 01:49:03;;;;;;;13.73;4.10;;;14.20;99.90;;;;;;5050257;28;19924;-75
2023/10/06 01:51:35;;;;;;;10.65;4.35;;;14.20;99.90;;;;;;5050644;28;20048;-76
2023/10/06 01:54:02;;;;;;;10.38;4.03;;;14.30;99.90;;;;;;5050729;28;21111;-76
2023/10/06 01:56:30;;;;;;;10.85;4.78;;;14.20;99.90;;;;;;5050472;28;20524;-76
2023/10/06 01:58:57;;;;;;;10.77;4.55;;;14.30;99.90;;;;;;5050158;28;20052;-75
2023/10/06 02:01:23;;;;;;;10.10;4.57;;;14.30;99.90;;;;;;5050418;28;20037;-76
2023/10/06 02:03:48;;;;;;;11.35;4.82;;;14.30;99.90;;;;;;5050472;28;20479;-76
2023/10/06 02:06:16;;;;;;;12.95;5.22;;;14.30;99.90;;;;;;5050589;28;20514;-76
2023/10/06 02:08:43;;;;;;;13.25;5.07;;;14.30;99.90;;;;;;5050167;28;20414;-75
2023/10/06 02:11:09;;;;;;;10.15;4.85;;;14.30;99.90;;;;;;5050244;28;20036;-76
2023/10/06 02:13:37;;;;;;;10.18;5.05;;;14.30;99.90;;;;;;5050128;28;20044;-76
2023/10/06 02:16:04;;;;;;;12.90;5.35;;;14.30;99.90;;;;;;5050199;28;20500;-75
2023/10/06 02:18:39;;;;;;;13.80;5.63;;;14.30;99.90;;;;;;5033117;28;20052;-77
2023/10/06 02:21:09;;;;;;;10.70;5.10;;;14.30;99.90;;;;;;5050174;28;20175;-77
2023/10/06 02:23:40;;;;;;;13.57;6.40;;;14.30;99.90;;;;;;5049924;28;20068;-75
2023/10/06 02:26:07;;;;;;;15.63;5.85;;;14.30;99.90;;;;;;5049972;28;20437;-74
2023/10/06 02:28:33;;;;;;;13.10;5.55;;;14.30;99.90;;;;;;5049480;28;20037;-74
2023/10/06 02:31:04;;;;;;;16.80;6.00;;;14.30;99.90;;;;;;5033488;28;20064;-75
2023/10/06 02:33:36;;;;;;;11.43;5.35;;;14.30;99.90;;;;;;5050159;28;20045;-76
2023/10/06 02:36:07;;;;;;;14.10;5.95;;;14.30;99.90;;;;;;5050002;28;20544;-76
2023/10/06 02:38:42;;;;;;;13.02;5.55;;;14.30;99.90;;;;;;5049596;28;20087;-75
2023/10/06 02:41:07;;;;;;;11.48;5.45;;;14.30;99.90;;;;;;5049813;28;20087;-75
2023/10/06 02:43:34;;;;;;;13.27;5.70;;;14.20;99.90;;;;;;5033234;28;20485;-74
2023/10/06 02:46:06;;;;;;;14.05;5.90;;;14.20;99.90;;;;;;5049530;28;20040;-76
2023/10/06 02:48:33;;;;;;;12.55;6.35;;;14.20;99.90;;;;;;5049448;28;20573;-76
2023/10/06 02:51:01;;;;;;;11.77;5.70;;;14.10;99.90;;;;;;5049728;28;20049;-75
2023/10/06 02:53:29;;;;;;;12.35;6.13;;;14.10;99.90;;;;;;5049607;28;20041;-77
2023/10/06 02:56:05;;;;;;;16.55;6.05;;;14.10;99.90;;;;;;5049783;28;20036;-76
2023/10/06 02:58:33;;;;;;;14.55;6.22;;;14.10;99.90;;;;;;5047977;28;20400;-74
2023/10/06 03:00:59;;;;;;;13.68;5.93;;;14.00;99.90;;;;;;5049264;28;20044;-75
2023/10/06 03:03:28;;;;;;;13.90;6.45;;;14.00;99.90;;;;;;5049526;28;20090;-76
2023/10/06 03:05:55;;;;;;;13.30;5.82;;;14.00;99.90;;;;;;5049754;28;20044;-75
2023/10/06 03:08:26;;;;;;;12.68;5.75;;;14.00;99.90;;;;;;5049526;28;20416;-76
2023/10/06 03:10:52;;;;;;;10.18;5.90;;;14.00;99.90;;;;;;5049618;28;20045;-75
2023/10/06 03:13:32;;;;;;;12.93;6.63;;;14.00;99.90;;;;;;5049489;28;20466;-76
2023/10/06 03:15:59;;;;;;;18.42;5.97;;;14.00;99.90;;;;;;5049369;28;20047;-75
2023/10/06 03:18:25;;;;;;;14.95;6.70;;;14.10;99.90;;;;;;5049238;28;20041;-76
2023/10/06 03:20:57;;;;;;;12.57;6.40;;;14.00;99.90;;;;;;5049423;28;20116;-77
2023/10/06 03:23:37;;;;;;;14.35;6.93;;;14.10;99.90;;;;;;5049507;28;20098;-76
2023/10/06 03:26:04;;;;;;;12.27;7.18;;;14.00;99.90;;;;;;5049497;28;20048;-77
2023/10/06 03:28:36;;;;;;;12.95;6.85;;;14.00;99.90;;;;;;5049176;28;20041;-76
2023/10/06 03:31:21;;;;;;;14.75;6.82;;;14.00;99.90;;;;;;5049370;28;20044;-75
2023/10/06 03:33:48;;;;;;;15.75;7.03;;;14.00;99.90;;;;;;5050710;28;20052;-76
2023/10/06 03:36:16;;;;;;;13.30;7.50;;;14.00;99.90;;;;;;5049648;28;20048;-76
2023/10/06 03:38:55;;;;;;;17.75;7.72;;;14.00;99.90;;;;;;5051750;28;20043;-77
2023/10/06 03:41:32;;;;;;;14.70;7.68;;;14.00;99.90;;;;;;5053043;28;20052;-76
2023/10/06 03:44:03;;;;;;;18.58;8.45;;;14.00;99.90;;;;;;5053187;28;20041;-76
2023/10/06 03:46:36;;;;;;;15.25;7.40;;;14.00;99.90;;;;;;5052567;28;20037;-76
2023/10/06 03:49:03;;;;;;;15.77;8.00;;;14.00;99.90;;;;;;5051997;28;20036;-75
2023/10/06 03:51:29;;;;;;;15.48;7.82;;;14.00;99.90;;;;;;5052874;28;20458;-76
2023/10/06 03:53:56;;;;;;;16.25;9.32;;;14.00;99.90;;;;;;5052859;28;20044;-76
2023/10/06 03:56:22;;;;;;;18.73;8.55;;;14.00;99.90;;;;;;5052878;28;20045;-76
2023/10/06 03:58:48;;;;;;;15.02;8.25;;;14.00;99.90;;;;;;5052180;28;20463;-76
2023/10/06 04:01:26;;;;;;;15.30;8.20;;;14.00;99.90;;;;;;5052821;28;20411;-76
2023/10/06 04:03:54;;;;;;;16.58;8.63;;;14.00;99.90;;;;;;5052568;28;20146;-75
2023/10/06 04:06:23;;;;;;;18.17;9.02;;;14.00;99.90;;;;;;5052366;28;20041;-75
2023/10/06 04:08:49;;;;;;;19.65;8.82;;;14.00;99.90;;;;;;5051121;28;20574;-76
2023/10/06 04:11:15;;;;;;;18.20;8.98;;;14.00;99.90;;;;;;5052485;28;20041;-75
2023/10/06 04:13:44;;;;;;;16.70;8.90;;;14.00;99.90;;;;;;5052379;28;20144;-75
2023/10/06 04:16:09;;;;;;;14.65;8.95;;;14.00;99.90;;;;;;5052410;28;20497;-76
2023/10/06 04:18:35;;;;;;;14.68;7.70;;;14.00;99.90;;;;;;5052099;28;20052;-76
2023/10/06 04:21:03;;;;;;;14.73;8.68;;;14.00;99.90;;;;;;5052257;28;20111;-74
2023/10/06 04:23:28;;;;;;;18.27;7.93;;;14.00;99.90;;;;;;5052698;28;20459;-75
2023/10/06 04:25:56;;;;;;;16.15;8.60;;;14.00;99.90;;;;;;5052345;28;20037;-76
2023/10/06 04:28:25;;;;;;;20.15;8.80;;;14.00;99.90;;;;;;5051886;28;20045;-76
2023/10/06 04:30:50;;;;;;;15.48;8.20;;;14.00;99.90;;;;;;5052085;28;20052;-76
2023/10/06 04:33:18;;;;;;;16.67;7.90;;;14.00;99.90;;;;;;5052031;28;20045;-76
2023/10/06 04:38:29;;;;;;;14.68;8.18;;;14.00;99.90;;;;;;5051623;28;20198;-76
2023/10/06 04:40:58;;;;;;;13.25;7.53;;;14.00;99.90;;;;;;5051859;28;20123;-74
2023/10/06 04:43:24;;;;;;;18.08;8.13;;;14.00;99.90;;;;;;5051791;28;20033;-77
2023/10/06 04:45:50;;;;;;;14.57;8.00;;;13.90;99.90;;;;;;5051874;28;20040;-75
2023/10/06 04:48:18;;;;;;;14.35;7.75;;;13.90;99.90;;;;;;5051216;28;20037;-75
2023/10/06 04:50:44;;;;;;;13.00;7.65;;;14.00;99.90;;;;;;5051375;28;20556;-75
2023/10/06 04:53:11;;;;;;;15.07;8.02;;;13.90;99.90;;;;;;5050438;28;20116;-76
2023/10/06 04:55:40;;;;;;;15.45;8.20;;;13.90;99.90;;;;;;5051665;28;20044;-75
2023/10/06 04:58:08;;;;;;;12.88;7.47;;;13.90;99.90;;;;;;5050980;28;20033;-76
2023/10/06 05:00:33;;;;;;;13.40;7.00;;;13.90;99.90;;;;;;5051544;28;20072;-75
2023/10/06 05:03:03;;;;;;;17.83;7.32;;;13.90;99.90;;;;;;5051517;28;20051;-75
2023/10/06 05:05:33;;;;;;;15.13;7.50;;;13.90;99.90;;;;;;5051461;28;20033;-75
2023/10/06 05:07:59;;;;;;;12.82;7.40;;;14.00;99.90;;;;;;5051529;28;20080;-76
2023/10/06 05:10:25;;;;;;;13.80;7.05;;;13.90;99.90;;;;;;5051145;28;20072;-76
2023/10/06 05:12:52;;;;;;;15.65;7.90;;;13.90;99.90;;;;;;5051540;28;20400;-76
2023/10/06 05:15:26;;;;;;;16.95;6.72;;;13.90;99.90;;;;;;5050918;28;20041;-76
2023/10/06 05:17:55;;;;;;;14.63;6.80;;;13.90;99.90;;;;;;5051491;28;20338;-76
2023/10/06 05:20:31;;;;;;;17.63;7.15;;;13.90;99.90;;;;;;5051161;28;20377;-76
2023/10/06 05:22:58;;;;;;;13.43;6.78;;;13.90;99.90;;;;;;5051031;28;20049;-75
2023/10/06 05:25:26;;;;;;;14.48;6.97;;;13.90;99.90;;;;;;5051441;28;20041;-74
2023/10/06 05:27:53;;;;;;;16.52;6.78;;;13.90;99.90;;;;;;5050909;28;20041;-75
2023/10/06 05:30:21;;;;;;;15.02;6.47;;;13.90;99.90;;;;;;5049851;28;20033;-75
2023/10/06 05:32:47;;;;;;;16.05;7.22;;;13.80;99.90;;;;;;5050242;28;20059;-76
2023/10/06 05:35:13;;;;;;;21.70;7.32;;;13.80;99.90;;;;;;5034563;28;20385;-74
2023/10/06 05:37:41;;;;;;;13.55;6.70;;;13.80;99.90;;;;;;5050792;28;20055;-76
2023/10/06 05:40:12;;;;;;;15.80;6.68;;;13.80;99.90;;;;;;5050781;28;20082;-76
2023/10/06 05:42:40;;;;;;;15.15;7.38;;;13.80;99.90;;;;;;5050704;28;20036;-75
2023/10/06 05:45:15;;;;;;;10.57;6.40;;;13.80;99.90;;;;;;5050669;28;20097;-76
2023/10/06 05:47:47;;;;;;;17.38;6.82;;;13.80;99.90;;;;;;5033810;28;20548;-75
2023/10/06 05:50:27;;;;;;;14.30;6.32;;;13.80;99.90;;;;;;5050775;28;20378;-77
2023/10/06 05:53:07;;;;;;;12.48;6.45;;;13.90;99.90;;;;;;5050418;28;20040;-76
2023/10/06 05:55:35;;;;;;;12.10;6.45;;;13.80;99.90;;;;;;5050342;28;20049;-76
2023/10/06 05:58:03;;;;;;;11.95;7.00;;;13.90;99.90;;;;;;5050373;28;20546;-75
2023/10/06 06:00:30;;;;;;;11.75;6.63;;;13.90;99.90;;;;;;5049624;28;20183;-75
2023/10/06 06:03:13;;;;;;;15.38;6.90;;;13.90;99.90;;;;;;5050617;28;20167;-76
2023/10/06 06:05:40;;;;;;;17.17;6.55;;;13.90;99.90;;;;;;5050372;28;20041;-77
2023/10/06 06:08:09;;;;;;;12.43;6.75;;;13.90;99.90;;;;;;5050208;28;20041;-76
2023/10/06 06:10:40;;;;;;;14.73;6.78;;;13.90;99.90;;;;;;5050312;28;20106;-74
2023/10/06 06:13:06;;;;;;;15.40;7.35;;;14.00;99.90;;;;;;5050268;28;20382;-74
2023/10/06 06:15:32;;;;;;;15.57;7.00;;;14.00;99.90;;;;;;5050065;28;20047;-75
2023/10/06 06:18:01;;;;;;;20.63;8.15;;;14.00;99.90;;;;;;5050273;28;20497;-75
2023/10/06 06:20:28;;;;;;;14.18;6.93;;;14.10;99.90;;;;;;5049992;28;20045;-76
2023/10/06 06:22:58;;;;;;;12.18;6.32;;;14.10;99.90;;;;;;5050428;28;20386;-76
2023/10/06 06:25:26;;;;;;;12.68;6.78;;;14.10;99.90;;;;;;5049950;28;20069;-77
2023/10/06 06:27:54;;;;;;;18.08;7.65;;;14.10;99.90;;;;;;5033458;28;20079;-75
2023/10/06 06:30:24;;;;;;;14.68;6.50;;;14.10;99.90;;;;;;5049614;28;20040;-75
2023/10/06 06:32:52;;;;;;;15.05;6.35;;;14.10;99.90;;;;;;5050040;28;20040;-74
2023/10/06 06:35:19;;;;;;;13.05;6.90;;;14.20;99.90;;;;;;5050231;28;20186;-75
2023/10/06 06:37:59;;;;;;;16.98;7.25;;;14.10;99.90;;;;;;5049717;28;20182;-77
2023/10/06 06:40:26;;;;;;;15.45;6.85;;;14.20;99.90;;;;;;5049811;28;20090;-75
2023/10/06 06:42:52;;;;;;;14.82;6.75;;;14.20;99.90;;;;;;5049868;28;20040;-75
2023/10/06 06:45:19;;;;;;;14.75;6.75;;;14.20;99.90;;;;;;5050171;28;20435;-76
2023/10/06 06:47:44;;;;;;;13.35;6.72;;;14.20;99.90;;;;;;5049637;28;20033;-76
2023/10/06 06:50:13;;;;;;;13.38;7.18;;;14.30;99.90;;;;;;5049611;28;20086;-76
2023/10/06 06:52:39;;;;;;;13.38;6.63;;;14.30;99.90;;;;;;5048913;28;20037;-76
2023/10/06 06:55:12;;;;;;;14.57;6.93;;;14.30;99.90;;;;;;5049583;28;20060;-75
2023/10/06 06:57:41;;;;;;;12.90;6.28;;;14.40;99.90;;;;;;5050134;28;20049;-76
2023/10/06 07:00:15;;;;;;;15.75;6.95;;;14.40;99.90;;;;;;5049288;28;20029;-75
2023/10/06 07:02:41;;;;;;;12.88;6.25;;;14.40;99.90;;;;;;5051197;28;20103;-76
2023/10/06 07:05:07;;;;;;;13.88;7.07;;;14.40;99.90;;;;;;5048748;28;20041;-76
2023/10/06 07:07:33;;;;;;;15.50;7.47;;;14.50;99.90;;;;;;5049285;28;20090;-75
2023/10/06 07:09:59;;;;;;;15.57;7.93;;;14.50;99.90;;;;;;5049181;28;20053;-76
2023/10/06 07:12:24;;;;;;;12.13;7.40;;;14.50;99.90;;;;;;5050153;28;20044;-75
2023/10/06 07:14:50;;;;;;;18.05;7.18;;;14.50;99.90;;;;;;5053519;28;20045;-76
2023/10/06 07:17:15;;;;;;;15.25;7.00;;;14.50;99.90;;;;;;5053513;28;20527;-76
2023/10/06 07:19:41;;;;;;;16.75;7.05;;;14.50;99.90;;;;;;5053165;28;20092;-75
2023/10/06 07:22:07;;;;;;;15.80;7.53;;;14.50;99.90;;;;;;5053575;28;20044;-75
2023/10/06 07:24:33;;;;;;;13.80;7.13;;;14.50;99.90;;;;;;5053275;28;20495;-75
2023/10/06 07:26:59;;;;;;;17.98;8.00;;;14.50;99.90;;;;;;5053246;28;20087;-75
2023/10/06 07:29:24;;;;;;;17.75;8.35;;;14.50;99.90;;;;;;5052991;28;20507;-75
2023/10/06 07:31:50;;;;;;;17.35;7.60;;;14.50;99.90;;;;;;5053197;28;20049;-76
2023/10/06 07:34:16;;;;;;;16.23;7.65;;;14.60;99.90;;;;;;5053299;28;20075;-75
2023/10/06 07:36:42;;;;;;;19.38;8.48;;;14.70;99.90;;;;;;5053071;28;20075;-76
2023/10/06 07:39:08;;;;;;;14.48;8.30;;;14.70;99.90;;;;;;5052622;28;20516;-77
2023/10/06 07:41:34;;;;;;;15.10;8.18;;;14.80;99.90;;;;;;5052454;28;20041;-77
2023/10/06 07:44:00;;;;;;;14.40;7.28;;;14.90;99.90;;;;;;5053131;28;20078;-76
2023/10/06 07:46:26;;;;;;;18.42;8.20;;;14.90;99.90;;;;;;5053231;28;20040;-77
2023/10/06 07:48:55;;;;;;;17.10;8.45;;;14.90;99.90;;;;;;5052878;28;20048;-76
2023/10/06 07:51:21;;;;;;;17.80;7.78;;;14.90;99.90;;;;;;5052798;28;20044;-75
2023/10/06 07:53:48;;;;;;;16.33;7.80;;;14.90;99.90;;;;;;5053112;28;20044;-76
2023/10/06 07:56:14;;;;;;;17.38;8.07;;;14.90;99.90;;;;;;5052676;28;20051;-76
2023/10/06 07:58:43;;;;;;;15.30;8.20;;;14.90;99.90;;;;;;5052590;28;20067;-78
2023/10/06 08:01:10;;;;;;;20.80;9.07;;;14.80;99.90;;;;;;5052798;28;20142;-77
2023/10/06 08:03:38;;;;;;;13.98;8.73;;;14.80;99.90;;;;;;5052816;28;20385;-75
2023/10/06 08:06:05;;;;;;;17.92;8.27;;;14.80;99.90;;;;;;5052556;28;20041;-75
2023/10/06 08:08:34;;;;;;;15.98;8.35;;;14.90;99.90;;;;;;5052345;28;20036;-75
2023/10/06 08:11:06;;;;;;;18.20;9.18;;;15.00;99.90;;;;;;5052328;28;20041;-76
2023/10/06 08:13:33;;;;;;;17.23;9.00;;;15.10;99.90;;;;;;5052489;28;20051;-76
2023/10/06 08:15:59;;;;;;;17.08;8.77;;;15.20;99.90;;;;;;5052713;28;20571;-75
2023/10/06 08:18:28;;;;;;;14.70;8.68;;;15.30;99.90;;;;;;5052028;28;20041;-75
2023/10/06 08:20:54;;;;;;;18.52;8.73;;;15.40;99.90;;;;;;5052309;28;20044;-76
2023/10/06 08:23:20;;;;;;;16.30;7.93;;;15.50;99.90;;;;;;5051557;28;20055;-76
2023/10/06 08:25:46;;;;;;;16.90;9.10;;;15.60;99.90;;;;;;5052063;28;20040;-75
2023/10/06 08:28:12;;;;;;;18.33;8.10;;;15.70;99.90;;;;;;5035349;28;20079;-75
2023/10/06 08:30:38;;;;;;;17.42;8.23;;;15.60;99.90;;;;;;5035866;28;20068;-75
2023/10/06 08:33:08;;;;;;;19.23;8.50;;;15.70;99.90;;;;;;5052358;28;20051;-75
2023/10/06 08:35:34;;;;;;;16.30;8.10;;;15.70;99.90;;;;;;5052122;28;20500;-76
2023/10/06 08:38:00;;;;;;;19.35;7.85;;;15.80;99.90;;;;;;5052058;28;20040;-75
2023/10/06 08:40:27;;;;;;;20.00;8.32;;;15.80;99.90;;;;;;5051776;28;20048;-77
2023/10/06 08:42:54;;;;;;;20.42;8.00;;;15.80;99.90;;;;;;5052123;28;20072;-76
2023/10/06 08:45:22;;;;;;;17.13;7.90;;;15.90;99.90;;;;;;5035404;28;20086;-76
2023/10/06 08:47:58;;;;;;;17.27;8.18;;;15.90;99.90;;;;;;5049687;28;20171;-75
2023/10/06 08:50:27;;;;;;;17.17;7.97;;;16.00;99.90;;;;;;5051039;28;20037;-76
2023/10/06 08:52:54;;;;;;;21.08;8.23;;;16.10;99.90;;;;;;5051794;28;20040;-77
2023/10/06 08:55:21;;;;;;;17.08;7.57;;;16.10;99.90;;;;;;5051779;28;20048;-76
2023/10/06 08:57:48;;;;;;;14.90;7.40;;;16.20;99.90;;;;;;5052059;28;20037;-75
2023/10/06 09:00:16;;;;;;;15.40;7.28;;;16.40;99.90;;;;;;5051324;28;20037;-76
2023/10/06 09:02:43;;;;;;;13.45;7.07;;;16.50;99.90;;;;;;5051536;28;20032;-75
2023/10/06 09:05:10;;;;;;;22.15;7.47;;;16.60;99.90;;;;;;5051723;28;20412;-76
2023/10/06 09:07:35;;;;;;;14.40;6.72;;;16.70;99.90;;;;;;5051337;28;20033;-73
2023/10/06 09:10:17;;;;;;;17.15;7.47;;;16.80;99.90;;;;;;5051232;28;20037;-76
2023/10/06 09:12:43;;;;;;;13.68;7.40;;;16.90;99.90;;;;;;5051494;28;20060;-76
2023/10/06 09:15:15;;;;;;;15.30;6.65;;;16.90;99.90;;;;;;5051170;28;20045;-77
2023/10/06 09:17:41;;;;;;;14.93;5.82;;;16.90;99.90;;;;;;5051580;28;20041;-76
2023/10/06 09:20:11;;;;;;;17.27;6.45;;;16.90;99.90;;;;;;5050808;28;20083;-76
2023/10/06 09:22:49;;;;;;;18.85;6.63;;;16.90;99.90;;;;;;5034165;28;20041;-76
2023/10/06 09:25:18;;;;;;;13.23;6.05;;;16.90;99.90;;;;;;5051332;28;20041;-76
2023/10/06 09:27:44;;;;;;;19.40;6.22;;;17.00;99.90;;;;;;5050008;28;20037;-77
2023/10/06 09:30:16;;;;;;;15.23;5.80;;;17.00;99.90;;;;;;5032702;28;20047;-76
2023/10/06 09:32:42;;;;;;;19.40;6.18;;;17.00;99.90;;;;;;5052163;28;20064;-76
2023/10/06 09:35:19;;;;;;;17.27;6.53;;;17.00;99.90;;;;;;5050403;28;20044;-76
2023/10/06 09:37:44;;;;;;;14.50;5.88;;;17.00;99.90;;;;;;5050912;28;20036;-75
2023/10/06 09:40:19;;;;;;;14.73;5.75;;;17.10;99.90;;;;;;5050822;28;20033;-75
2023/10/06 09:42:47;;;;;;;18.38;6.30;;;17.20;99.90;;;;;;5034109;28;20040;-76
2023/10/06 09:45:17;;;;;;;15.25;5.85;;;17.10;99.90;;;;;;5050975;28;20438;-76
2023/10/06 09:47:50;;;;;;;13.45;5.57;;;17.20;99.90;;;;;;5049656;28;20048;-76
2023/10/06 09:50:19;;;;;;;18.33;6.13;;;17.20;99.90;;;;;;5049157;28;20037;-75
2023/10/06 09:52:50;;;;;;;15.65;5.95;;;17.20;99.90;;;;;;5050131;28;20045;-76
2023/10/06 09:55:21;;;;;;;21.20;5.93;;;17.30;99.90;;;;;;5050278;28;20370;-76
2023/10/06 09:57:50;;;;;;;17.52;5.72;;;17.40;99.90;;;;;;5050909;28;20123;-77
2023/10/06 10:00:19;;;;;;;17.13;5.82;;;17.50;99.90;;;;;;5050111;28;20044;-76
2023/10/06 10:02:49;;;;;;;15.07;5.53;;;17.60;99.90;;;;;;5050528;28;20048;-75
2023/10/06 10:05:19;;;;;;;15.45;5.30;;;17.60;99.90;;;;;;5050232;28;20037;-76
2023/10/06 10:07:48;;;;;;;14.10;5.25;;;17.60;99.90;;;;;;5050247;28;20045;-76
2023/10/06 10:10:14;;;;;;;20.67;5.50;;;17.70;99.90;;;;;;5049943;28;20045;-76
2023/10/06 10:12:59;;;;;;;13.23;4.88;;;17.70;99.90;;;;;;5050551;28;20393;-76
2023/10/06 10:15:52;;;;;;;16.60;5.28;;;17.80;99.90;;;;;;5049782;28;20065;-76
2023/10/06 10:18:32;;;;;;;10.45;4.85;;;17.80;99.90;;;;;;5048928;28;20076;-76
2023/10/06 10:20:59;;;;;;;16.45;5.40;;;17.80;99.90;;;;;;5049966;28;20041;-76
2023/10/06 10:23:29;;;;;;;15.32;5.13;;;17.90;99.90;;;;;;5050483;28;20085;-75
2023/10/06 10:26:20;;;;;;;15.20;4.88;;;17.90;99.90;;;;;;5050324;28;20504;-77
2023/10/06 10:29:17;;;;;;;15.13;4.85;;;17.90;99.90;;;;;;5049048;28;20056;-75
2023/10/06 10:31:56;;;;;;;18.13;5.40;;;18.00;99.90;;;;;;5033412;28;20044;-76
2023/10/06 10:34:23;;;;;;;15.10;5.03;;;18.10;99.90;;;;;;5051066;28;20045;-75
2023/10/06 10:36:58;;;;;;;13.43;4.82;;;18.20;99.90;;;;;;5049073;28;20551;-76
2023/10/06 10:39:24;;;;;;;14.15;5.03;;;18.40;99.90;;;;;;5048939;28;20080;-75
2023/10/06 10:41:58;;;;;;;13.15;5.25;;;18.50;99.90;;;;;;5049912;28;20079;-77
2023/10/06 10:44:23;;;;;;;13.93;4.95;;;18.60;99.90;;;;;;5049919;28;20094;-76
2023/10/06 10:46:52;;;;;;;15.55;5.10;;;18.60;99.90;;;;;;5049262;28;20404;-76
2023/10/06 10:49:19;;;;;;;18.48;5.22;;;18.70;99.90;;;;;;5048381;28;20420;-76
2023/10/06 10:51:53;;;;;;;11.77;4.70;;;18.70;99.90;;;;;;5049815;28;20052;-78
2023/10/06 10:54:22;;;;;;;;;;;18.90;99.90;;;;;;5050292;28;20045;-76
2023/10/06 10:56:51;;;;;;;11.93;4.57;;;18.80;99.90;;;;;;5050063;28;19917;-75
2023/10/06 10:59:17;;;;;;;14.00;4.72;;;18.80;99.90;;;;;;5049257;28;20041;-76
2023/10/06 11:01:44;;;;;;;15.18;4.38;;;18.90;99.90;;;;;;5049959;28;20068;-76
2023/10/06 11:04:09;;;;;;;12.13;3.80;;;18.90;99.90;;;;;;5049682;28;20091;-75
2023/10/06 11:06:37;;;;;;;18.17;4.15;;;18.90;99.90;;;;;;5049990;28;20079;-76
2023/10/06 11:09:12;;;;;;;15.60;4.80;;;18.80;99.90;;;;;;5049242;28;20076;-76
2023/10/06 11:11:38;;;;;;;13.25;4.32;;;18.80;99.90;;;;;;5049702;28;20053;-76
2023/10/06 11:14:04;;;;;;;13.02;4.07;;;18.80;99.90;;;;;;5049990;28;20049;-75
2023/10/06 11:16:31;;;;;;;13.05;5.00;;;18.80;99.90;;;;;;5049385;28;20052;-77
2023/10/06 11:18:56;;;;;;;13.70;4.45;;;18.90;99.90;;;;;;5049209;28;20120;-76
2023/10/06 11:21:26;;;;;;;10.32;3.40;;;19.00;99.90;;;;;;5049424;28;20182;-75
2023/10/06 11:23:51;;;;;;;14.95;3.83;;;19.20;99.90;;;;;;5049588;28;20037;-75
2023/10/06 11:26:27;;;;;;;9.48;3.92;;;19.30;99.90;;;;;;5049400;28;20037;-75
2023/10/06 11:28:53;;;;;;;14.43;3.90;;;19.30;99.90;;;;;;5049340;28;20500;-76
2023/10/06 11:31:18;;;;;;;14.38;3.92;;;19.30;99.90;;;;;;5049566;28;20056;-76
2023/10/06 11:33:44;;;;;;;11.88;4.00;;;19.40;99.90;;;;;;5048690;28;20100;-77
2023/10/06 11:36:11;;;;;;;12.27;3.90;;;19.50;99.90;;;;;;5048308;28;20037;-76
2023/10/06 11:38:37;;;;;;;14.90;4.43;;;19.40;99.90;;;;;;5049174;28;20077;-75
2023/10/06 11:41:02;;;;;;;12.60;3.60;;;19.40;99.90;;;;;;5049430;28;20045;-75
2023/10/06 11:43:30;;;;;;;16.58;3.40;;;19.40;99.90;;;;;;5049508;28;20048;-76
2023/10/06 11:46:02;;;;;;;11.90;3.92;;;19.50;99.90;;;;;;5049264;28;20036;-77
2023/10/06 11:48:29;;;;;;;17.90;4.10;;;19.50;99.90;;;;;;5048734;28;20060;-77
2023/10/06 11:51:00;;;;;;;17.08;4.07;;;19.50;99.90;;;;;;5032615;28;20099;-76
2023/10/06 11:53:26;;;;;;;15.10;3.88;;;19.60;99.90;;;;;;5032705;28;20049;-76
2023/10/06 11:55:53;;;;;;;15.93;4.13;;;19.70;99.90;;;;;;5049078;28;20103;-76
2023/10/06 11:58:35;;;;;;;14.15;3.75;;;19.70;99.90;;;;;;5049139;28;20045;-76
2023/10/06 12:01:02;;;;;;;12.70;3.40;;;19.80;99.90;;;;;;5051652;28;20095;-75
2023/10/06 12:03:39;;;;;;;11.27;2.80;;;19.90;99.90;;;;;;5052635;28;20037;-76
2023/10/06 12:06:11;;;;;;;13.43;3.20;;;20.00;99.90;;;;;;5036222;28;20524;-76
2023/10/06 12:08:44;;;;;;;11.25;3.30;;;20.10;99.90;;;;;;5052642;28;20396;-75
2023/10/06 12:11:12;;;;;;;11.53;3.80;;;20.10;99.90;;;;;;5052930;28;20439;-75
2023/10/06 12:13:38;;;;;;;13.25;3.15;;;20.10;99.90;;;;;;5052536;28;20464;-75
2023/10/06 12:16:13;;;;;;;13.63;3.50;;;20.10;99.90;;;;;;5052083;28;20041;-76
2023/10/06 12:18:39;;;;;;;11.63;3.33;;;20.10;99.90;;;;;;5051724;28;20041;-76
2023/10/06 12:21:11;;;;;;;14.77;3.30;;;20.00;99.90;;;;;;5050415;28;20122;-77
2023/10/06 12:23:37;;;;;;;13.43;3.22;;;20.10;99.90;;;;;;5052334;28;20060;-77
2023/10/06 12:26:05;;;;;;;14.45;2.95;;;20.20;99.90;;;;;;5052310;28;20068;-76
2023/10/06 12:28:31;;;;;;;11.48;2.90;;;20.40;99.90;;;;;;5051924;28;20037;-75
2023/10/06 12:30:56;;;;;;;11.73;3.45;;;20.60;99.90;;;;;;5035519;28;20120;-76
2023/10/06 12:33:22;;;;;;;10.35;2.92;;;20.70;99.90;;;;;;5052062;28;20041;-75
2023/10/06 12:35:52;;;;;;;12.90;2.88;;;20.80;99.90;;;;;;5052070;28;20516;-76
2023/10/06 12:38:18;;;;;;;12.77;3.40;;;20.60;99.90;;;;;;5051730;28;20045;-76
2023/10/06 12:40:46;;;;;;;15.82;3.20;;;20.50;99.90;;;;;;5051186;28;20115;-75
2023/10/06 12:43:13;;;;;;;12.82;3.05;;;20.50;99.90;;;;;;5051858;28;20167;-76
2023/10/06 12:45:39;;;;;;;13.70;3.55;;;20.60;99.90;;;;;;5051905;28;20044;-76
2023/10/06 12:48:05;;;;;;;16.70;3.40;;;20.40;99.90;;;;;;5051676;28;20431;-75
2023/10/06 12:50:43;;;;;;;10.43;2.88;;;20.30;99.90;;;;;;5052443;28;20051;-75